sensor_id;sensor_type;location;lat;lon;timestamp;P1;durP1;ratioP1;P2;durP2;ratioP2
8652;SDS011;4364;52.426;9.424;2022-09-09T00:01:33;5.47;;;3.50;;
8652;SDS011;4364;52.426;9.424;2022-09-09T00:04:05;4.10;;;3.60;;
8652;SDS011;4364;52.426;9.424;2022-09-09T00:06:45;3.90;;;3.40;;
8652;SDS011;4364;52.426;9.424;2022-09-09T00:09:18;4.67;;;3.20;;
8652;SDS011;4364;52.426;9.424;2022-09-09T00:17:08;6.30;;;3.40;;
8652;SDS011;4364;52.426;9.424;2022-09-09T00:19:41;3.77;;;3.20;;
8652;SDS011;4364;52.426;9.424;2022-09-09T00:22:20;4.70;;;3.80;;
8652;SDS011;4364;52.426;9.424;2022-09-09T00:24:51;3.87;;;3.50;;
8652;SDS011;4364;52.426;9.424;2022-09-09T00:30:20;5.13;;;3.27;;
8652;SDS011;4364;52.426;9.424;2022-09-09T00:32:54;5.40;;;3.70;;
8652;SDS011;4364;52.426;9.424;2022-09-09T00:35:31;5.93;;;4.10;;
8652;SDS011;4364;52.426;9.424;2022-09-09T00:38:03;3.63;;;3.20;;
8652;SDS011;4364;52.426;9.424;2022-09-09T00:40:38;3.93;;;3.57;;
8652;SDS011;4364;52.426;9.424;2022-09-09T00:43:15;7.57;;;3.97;;
8652;SDS011;4364;52.426;9.424;2022-09-09T00:45:54;4.10;;;2.93;;
8652;SDS011;4364;52.426;9.424;2022-09-09T00:48:53;3.00;;;2.80;;
8652;SDS011;4364;52.426;9.424;2022-09-09T00:56:45;4.37;;;3.17;;
8652;SDS011;4364;52.426;9.424;2022-09-09T00:59:24;4.90;;;3.47;;
8652;SDS011;4364;52.426;9.424;2022-09-09T01:01:54;4.27;;;3.27;;
8652;SDS011;4364;52.426;9.424;2022-09-09T01:04:25;4.43;;;3.30;;
8652;SDS011;4364;52.426;9.424;2022-09-09T01:07:05;3.97;;;3.40;;
8652;SDS011;4364;52.426;9.424;2022-09-09T01:12:24;4.57;;;2.90;;
8652;SDS011;4364;52.426;9.424;2022-09-09T01:14:56;5.17;;;3.03;;
8652;SDS011;4364;52.426;9.424;2022-09-09T01:18:00;4.00;;;2.77;;
8652;SDS011;4364;52.426;9.424;2022-09-09T01:20:27;4.87;;;2.97;;
8652;SDS011;4364;52.426;9.424;2022-09-09T01:23:11;4.10;;;2.60;;
8652;SDS011;4364;52.426;9.424;2022-09-09T01:26:14;5.00;;;2.53;;
8652;SDS011;4364;52.426;9.424;2022-09-09T01:28:48;3.30;;;2.50;;
8652;SDS011;4364;52.426;9.424;2022-09-09T01:31:22;4.83;;;2.80;;
8652;SDS011;4364;52.426;9.424;2022-09-09T01:33:54;4.47;;;2.63;;
8652;SDS011;4364;52.426;9.424;2022-09-09T01:36:26;5.10;;;2.80;;
8652;SDS011;4364;52.426;9.424;2022-09-09T01:39:01;3.37;;;3.07;;
8652;SDS011;4364;52.426;9.424;2022-09-09T01:41:29;3.07;;;2.77;;
8652;SDS011;4364;52.426;9.424;2022-09-09T01:44:02;5.10;;;3.10;;
8652;SDS011;4364;52.426;9.424;2022-09-09T01:46:32;3.27;;;2.70;;
8652;SDS011;4364;52.426;9.424;2022-09-09T01:49:00;6.40;;;2.73;;
8652;SDS011;4364;52.426;9.424;2022-09-09T01:51:30;4.37;;;2.83;;
8652;SDS011;4364;52.426;9.424;2022-09-09T01:54:01;3.33;;;2.80;;
8652;SDS011;4364;52.426;9.424;2022-09-09T01:59:22;3.63;;;2.70;;
8652;SDS011;4364;52.426;9.424;2022-09-09T02:02:09;4.40;;;2.70;;
8652;SDS011;4364;52.426;9.424;2022-09-09T02:04:48;3.13;;;2.50;;
8652;SDS011;4364;52.426;9.424;2022-09-09T02:13:29;7.13;;;3.23;;
8652;SDS011;4364;52.426;9.424;2022-09-09T02:22:06;3.40;;;2.70;;
8652;SDS011;4364;52.426;9.424;2022-09-09T02:24:34;3.40;;;2.40;;
8652;SDS011;4364;52.426;9.424;2022-09-09T02:27:19;7.77;;;2.30;;
8652;SDS011;4364;52.426;9.424;2022-09-09T02:29:47;4.40;;;2.30;;
8652;SDS011;4364;52.426;9.424;2022-09-09T02:32:23;4.00;;;2.17;;
8652;SDS011;4364;52.426;9.424;2022-09-09T02:34:52;4.20;;;2.60;;
8652;SDS011;4364;52.426;9.424;2022-09-09T02:37:27;3.70;;;2.10;;
8652;SDS011;4364;52.426;9.424;2022-09-09T02:39:58;5.00;;;2.10;;
8652;SDS011;4364;52.426;9.424;2022-09-09T02:42:31;3.40;;;2.23;;
8652;SDS011;4364;52.426;9.424;2022-09-09T02:44:59;4.03;;;2.20;;
8652;SDS011;4364;52.426;9.424;2022-09-09T02:47:34;3.50;;;2.03;;
8652;SDS011;4364;52.426;9.424;2022-09-09T02:52:44;4.07;;;2.20;;
8652;SDS011;4364;52.426;9.424;2022-09-09T02:57:53;2.77;;;2.00;;
8652;SDS011;4364;52.426;9.424;2022-09-09T03:00:25;3.50;;;2.10;;
8652;SDS011;4364;52.426;9.424;2022-09-09T03:02:59;3.57;;;2.30;;
8652;SDS011;4364;52.426;9.424;2022-09-09T03:05:26;5.03;;;2.57;;
8652;SDS011;4364;52.426;9.424;2022-09-09T03:07:54;4.90;;;2.10;;
8652;SDS011;4364;52.426;9.424;2022-09-09T03:10:21;4.57;;;2.33;;
8652;SDS011;4364;52.426;9.424;2022-09-09T03:12:48;2.93;;;2.10;;
8652;SDS011;4364;52.426;9.424;2022-09-09T03:15:15;4.50;;;2.27;;
8652;SDS011;4364;52.426;9.424;2022-09-09T03:17:43;3.50;;;2.20;;
8652;SDS011;4364;52.426;9.424;2022-09-09T03:20:10;3.27;;;2.17;;
8652;SDS011;4364;52.426;9.424;2022-09-09T03:22:37;5.83;;;2.30;;
8652;SDS011;4364;52.426;9.424;2022-09-09T03:25:04;3.40;;;2.10;;
8652;SDS011;4364;52.426;9.424;2022-09-09T03:27:33;2.70;;;2.07;;
8652;SDS011;4364;52.426;9.424;2022-09-09T03:30:02;3.63;;;2.20;;
8652;SDS011;4364;52.426;9.424;2022-09-09T03:32:29;3.87;;;2.63;;
8652;SDS011;4364;52.426;9.424;2022-09-09T03:34:57;2.37;;;2.10;;
8652;SDS011;4364;52.426;9.424;2022-09-09T03:37:25;5.87;;;2.17;;
8652;SDS011;4364;52.426;9.424;2022-09-09T03:39:52;2.47;;;1.90;;
8652;SDS011;4364;52.426;9.424;2022-09-09T03:42:21;3.10;;;2.00;;
8652;SDS011;4364;52.426;9.424;2022-09-09T03:44:51;6.33;;;2.10;;
8652;SDS011;4364;52.426;9.424;2022-09-09T03:47:21;4.53;;;2.30;;
8652;SDS011;4364;52.426;9.424;2022-09-09T03:49:51;3.67;;;2.20;;
8652;SDS011;4364;52.426;9.424;2022-09-09T03:52:17;3.17;;;2.17;;
8652;SDS011;4364;52.426;9.424;2022-09-09T03:54:50;2.97;;;2.00;;
8652;SDS011;4364;52.426;9.424;2022-09-09T03:57:17;3.93;;;2.23;;
8652;SDS011;4364;52.426;9.424;2022-09-09T03:59:43;3.53;;;2.23;;
8652;SDS011;4364;52.426;9.424;2022-09-09T04:02:10;4.17;;;2.00;;
8652;SDS011;4364;52.426;9.424;2022-09-09T04:04:37;3.93;;;2.10;;
8652;SDS011;4364;52.426;9.424;2022-09-09T04:07:03;4.27;;;1.87;;
8652;SDS011;4364;52.426;9.424;2022-09-09T04:09:33;4.27;;;2.00;;
8652;SDS011;4364;52.426;9.424;2022-09-09T04:12:01;5.00;;;2.07;;
8652;SDS011;4364;52.426;9.424;2022-09-09T04:14:29;2.90;;;1.73;;
8652;SDS011;4364;52.426;9.424;2022-09-09T04:17:01;3.33;;;2.00;;
8652;SDS011;4364;52.426;9.424;2022-09-09T04:19:32;4.80;;;1.87;;
8652;SDS011;4364;52.426;9.424;2022-09-09T04:22:00;4.17;;;2.40;;
8652;SDS011;4364;52.426;9.424;2022-09-09T04:24:27;3.37;;;1.93;;
8652;SDS011;4364;52.426;9.424;2022-09-09T04:26:56;5.67;;;2.07;;
8652;SDS011;4364;52.426;9.424;2022-09-09T04:29:24;7.83;;;2.40;;
8652;SDS011;4364;52.426;9.424;2022-09-09T04:31:51;5.77;;;2.03;;
8652;SDS011;4364;52.426;9.424;2022-09-09T04:34:18;6.17;;;2.30;;
8652;SDS011;4364;52.426;9.424;2022-09-09T04:36:44;3.90;;;1.90;;
8652;SDS011;4364;52.426;9.424;2022-09-09T04:39:11;4.67;;;2.00;;
8652;SDS011;4364;52.426;9.424;2022-09-09T04:41:38;3.43;;;2.30;;
8652;SDS011;4364;52.426;9.424;2022-09-09T04:44:05;3.87;;;2.37;;
8652;SDS011;4364;52.426;9.424;2022-09-09T04:46:32;4.20;;;2.00;;
8652;SDS011;4364;52.426;9.424;2022-09-09T04:49:00;4.37;;;2.30;;
8652;SDS011;4364;52.426;9.424;2022-09-09T04:51:30;2.77;;;1.90;;
8652;SDS011;4364;52.426;9.424;2022-09-09T04:53:57;3.03;;;2.33;;
8652;SDS011;4364;52.426;9.424;2022-09-09T04:56:25;4.30;;;2.27;;
8652;SDS011;4364;52.426;9.424;2022-09-09T04:58:59;3.97;;;1.93;;
8652;SDS011;4364;52.426;9.424;2022-09-09T05:01:38;7.30;;;2.40;;
8652;SDS011;4364;52.426;9.424;2022-09-09T05:04:05;4.67;;;2.57;;
8652;SDS011;4364;52.426;9.424;2022-09-09T05:06:32;3.10;;;2.27;;
8652;SDS011;4364;52.426;9.424;2022-09-09T05:09:00;5.37;;;2.80;;
8652;SDS011;4364;52.426;9.424;2022-09-09T05:11:29;3.40;;;2.50;;
8652;SDS011;4364;52.426;9.424;2022-09-09T05:14:18;4.77;;;2.30;;
8652;SDS011;4364;52.426;9.424;2022-09-09T05:16:45;4.57;;;2.67;;
8652;SDS011;4364;52.426;9.424;2022-09-09T05:19:13;3.00;;;2.40;;
8652;SDS011;4364;52.426;9.424;2022-09-09T05:21:43;5.13;;;2.57;;
8652;SDS011;4364;52.426;9.424;2022-09-09T05:24:11;4.50;;;2.63;;
8652;SDS011;4364;52.426;9.424;2022-09-09T05:26:38;7.20;;;3.20;;
8652;SDS011;4364;52.426;9.424;2022-09-09T05:29:06;5.47;;;2.97;;
8652;SDS011;4364;52.426;9.424;2022-09-09T05:31:32;5.40;;;3.03;;
8652;SDS011;4364;52.426;9.424;2022-09-09T05:36:55;6.63;;;2.97;;
8652;SDS011;4364;52.426;9.424;2022-09-09T05:39:23;6.17;;;2.50;;
8652;SDS011;4364;52.426;9.424;2022-09-09T05:41:50;4.70;;;3.00;;
8652;SDS011;4364;52.426;9.424;2022-09-09T05:44:17;2.97;;;2.50;;
8652;SDS011;4364;52.426;9.424;2022-09-09T05:46:43;3.70;;;2.40;;
8652;SDS011;4364;52.426;9.424;2022-09-09T05:49:12;6.80;;;2.60;;
8652;SDS011;4364;52.426;9.424;2022-09-09T05:51:40;5.80;;;2.73;;
8652;SDS011;4364;52.426;9.424;2022-09-09T05:54:09;5.50;;;2.70;;
8652;SDS011;4364;52.426;9.424;2022-09-09T05:56:41;3.53;;;2.37;;
8652;SDS011;4364;52.426;9.424;2022-09-09T05:59:08;6.00;;;2.60;;
8652;SDS011;4364;52.426;9.424;2022-09-09T06:01:36;4.33;;;2.90;;
8652;SDS011;4364;52.426;9.424;2022-09-09T06:04:09;5.13;;;2.40;;
8652;SDS011;4364;52.426;9.424;2022-09-09T06:06:38;3.57;;;2.30;;
8652;SDS011;4364;52.426;9.424;2022-09-09T06:09:15;3.80;;;2.23;;
8652;SDS011;4364;52.426;9.424;2022-09-09T06:11:42;3.80;;;2.40;;
8652;SDS011;4364;52.426;9.424;2022-09-09T06:14:10;7.77;;;2.63;;
8652;SDS011;4364;52.426;9.424;2022-09-09T06:16:38;2.80;;;2.17;;
8652;SDS011;4364;52.426;9.424;2022-09-09T06:19:11;6.70;;;2.30;;
8652;SDS011;4364;52.426;9.424;2022-09-09T06:21:39;4.43;;;2.30;;
8652;SDS011;4364;52.426;9.424;2022-09-09T06:24:07;5.67;;;2.47;;
8652;SDS011;4364;52.426;9.424;2022-09-09T06:26:35;5.87;;;2.43;;
8652;SDS011;4364;52.426;9.424;2022-09-09T06:29:03;9.60;;;2.40;;
8652;SDS011;4364;52.426;9.424;2022-09-09T06:31:31;5.67;;;2.23;;
8652;SDS011;4364;52.426;9.424;2022-09-09T06:34:07;6.97;;;2.80;;
8652;SDS011;4364;52.426;9.424;2022-09-09T06:36:38;5.30;;;2.30;;
8652;SDS011;4364;52.426;9.424;2022-09-09T06:39:05;5.07;;;2.10;;
8652;SDS011;4364;52.426;9.424;2022-09-09T06:41:39;2.80;;;1.83;;
8652;SDS011;4364;52.426;9.424;2022-09-09T06:44:13;3.73;;;2.10;;
8652;SDS011;4364;52.426;9.424;2022-09-09T06:46:40;3.83;;;2.00;;
8652;SDS011;4364;52.426;9.424;2022-09-09T06:49:09;3.83;;;2.40;;
8652;SDS011;4364;52.426;9.424;2022-09-09T06:51:36;5.30;;;2.30;;
8652;SDS011;4364;52.426;9.424;2022-09-09T06:54:11;5.73;;;2.60;;
8652;SDS011;4364;52.426;9.424;2022-09-09T06:56:41;3.80;;;2.40;;
8652;SDS011;4364;52.426;9.424;2022-09-09T06:59:16;4.33;;;2.03;;
8652;SDS011;4364;52.426;9.424;2022-09-09T07:01:43;4.23;;;2.10;;
8652;SDS011;4364;52.426;9.424;2022-09-09T07:04:12;5.47;;;2.47;;
8652;SDS011;4364;52.426;9.424;2022-09-09T07:06:43;5.90;;;2.63;;
8652;SDS011;4364;52.426;9.424;2022-09-09T07:09:22;6.40;;;2.50;;
8652;SDS011;4364;52.426;9.424;2022-09-09T07:11:51;2.20;;;1.90;;
8652;SDS011;4364;52.426;9.424;2022-09-09T07:14:20;7.90;;;2.53;;
8652;SDS011;4364;52.426;9.424;2022-09-09T07:16:53;5.00;;;2.67;;
8652;SDS011;4364;52.426;9.424;2022-09-09T07:19:25;4.50;;;2.50;;
8652;SDS011;4364;52.426;9.424;2022-09-09T07:21:53;5.37;;;2.50;;
8652;SDS011;4364;52.426;9.424;2022-09-09T07:24:22;5.67;;;2.57;;
8652;SDS011;4364;52.426;9.424;2022-09-09T07:26:50;4.07;;;2.40;;
8652;SDS011;4364;52.426;9.424;2022-09-09T07:29:18;6.37;;;3.67;;
8652;SDS011;4364;52.426;9.424;2022-09-09T07:31:47;6.53;;;3.30;;
8652;SDS011;4364;52.426;9.424;2022-09-09T07:34:19;6.07;;;2.73;;
8652;SDS011;4364;52.426;9.424;2022-09-09T07:36:45;4.17;;;2.53;;
8652;SDS011;4364;52.426;9.424;2022-09-09T07:39:13;4.83;;;2.33;;
8652;SDS011;4364;52.426;9.424;2022-09-09T07:41:45;4.00;;;1.90;;
8652;SDS011;4364;52.426;9.424;2022-09-09T07:44:17;4.80;;;2.10;;
8652;SDS011;4364;52.426;9.424;2022-09-09T07:46:52;4.33;;;2.40;;
8652;SDS011;4364;52.426;9.424;2022-09-09T07:49:25;4.73;;;2.30;;
8652;SDS011;4364;52.426;9.424;2022-09-09T07:51:59;5.20;;;2.17;;
8652;SDS011;4364;52.426;9.424;2022-09-09T07:54:27;5.93;;;2.33;;
8652;SDS011;4364;52.426;9.424;2022-09-09T07:56:54;5.23;;;2.30;;
8652;SDS011;4364;52.426;9.424;2022-09-09T07:59:23;6.70;;;2.27;;
8652;SDS011;4364;52.426;9.424;2022-09-09T08:01:52;3.57;;;2.23;;
8652;SDS011;4364;52.426;9.424;2022-09-09T08:04:23;4.50;;;3.30;;
8652;SDS011;4364;52.426;9.424;2022-09-09T08:06:53;6.27;;;2.67;;
8652;SDS011;4364;52.426;9.424;2022-09-09T08:09:23;5.77;;;2.50;;
8652;SDS011;4364;52.426;9.424;2022-09-09T08:12:14;4.53;;;2.20;;
8652;SDS011;4364;52.426;9.424;2022-09-09T08:14:40;4.57;;;1.83;;
8652;SDS011;4364;52.426;9.424;2022-09-09T08:17:07;5.93;;;2.03;;
8652;SDS011;4364;52.426;9.424;2022-09-09T08:19:33;4.73;;;2.23;;
8652;SDS011;4364;52.426;9.424;2022-09-09T08:22:05;3.03;;;2.23;;
8652;SDS011;4364;52.426;9.424;2022-09-09T08:24:33;3.43;;;2.10;;
8652;SDS011;4364;52.426;9.424;2022-09-09T08:27:00;6.03;;;2.17;;
8652;SDS011;4364;52.426;9.424;2022-09-09T08:29:28;4.50;;;1.87;;
8652;SDS011;4364;52.426;9.424;2022-09-09T08:31:56;3.97;;;2.00;;
8652;SDS011;4364;52.426;9.424;2022-09-09T08:34:26;4.37;;;1.90;;
8652;SDS011;4364;52.426;9.424;2022-09-09T08:36:55;5.10;;;2.13;;
8652;SDS011;4364;52.426;9.424;2022-09-09T08:39:28;4.03;;;1.87;;
8652;SDS011;4364;52.426;9.424;2022-09-09T08:52:39;3.90;;;1.77;;
8652;SDS011;4364;52.426;9.424;2022-09-09T08:57:53;4.23;;;2.00;;
8652;SDS011;4364;52.426;9.424;2022-09-09T09:00:25;3.83;;;2.00;;
8652;SDS011;4364;52.426;9.424;2022-09-09T09:05:37;3.70;;;1.80;;
8652;SDS011;4364;52.426;9.424;2022-09-09T09:08:46;4.40;;;2.00;;
8652;SDS011;4364;52.426;9.424;2022-09-09T09:11:23;5.67;;;2.50;;
8652;SDS011;4364;52.426;9.424;2022-09-09T09:13:57;5.10;;;2.30;;
8652;SDS011;4364;52.426;9.424;2022-09-09T09:22:39;5.47;;;2.07;;
8652;SDS011;4364;52.426;9.424;2022-09-09T09:25:18;4.77;;;1.93;;
8652;SDS011;4364;52.426;9.424;2022-09-09T09:30:56;5.73;;;2.10;;
8652;SDS011;4364;52.426;9.424;2022-09-09T09:33:32;5.07;;;1.90;;
8652;SDS011;4364;52.426;9.424;2022-09-09T09:36:07;5.40;;;2.23;;
8652;SDS011;4364;52.426;9.424;2022-09-09T09:38:36;4.90;;;2.20;;
8652;SDS011;4364;52.426;9.424;2022-09-09T09:47:07;6.63;;;2.20;;
8652;SDS011;4364;52.426;9.424;2022-09-09T09:49:54;5.20;;;2.40;;
8652;SDS011;4364;52.426;9.424;2022-09-09T09:52:28;6.07;;;1.93;;
8652;SDS011;4364;52.426;9.424;2022-09-09T09:54:59;5.03;;;2.10;;
8652;SDS011;4364;52.426;9.424;2022-09-09T09:57:33;4.03;;;1.73;;
8652;SDS011;4364;52.426;9.424;2022-09-09T10:02:45;5.73;;;2.00;;
8652;SDS011;4364;52.426;9.424;2022-09-09T10:05:27;4.20;;;2.10;;
8652;SDS011;4364;52.426;9.424;2022-09-09T10:08:10;6.27;;;2.37;;
8652;SDS011;4364;52.426;9.424;2022-09-09T10:13:45;6.80;;;3.30;;
8652;SDS011;4364;52.426;9.424;2022-09-09T10:16:35;7.23;;;2.97;;
8652;SDS011;4364;52.426;9.424;2022-09-09T10:19:04;4.23;;;2.23;;
8652;SDS011;4364;52.426;9.424;2022-09-09T10:30:39;4.17;;;1.93;;
8652;SDS011;4364;52.426;9.424;2022-09-09T10:36:12;4.57;;;1.97;;
8652;SDS011;4364;52.426;9.424;2022-09-09T10:38:55;4.00;;;2.00;;
8652;SDS011;4364;52.426;9.424;2022-09-09T10:49:22;8.20;;;2.50;;
8652;SDS011;4364;52.426;9.424;2022-09-09T10:52:28;3.40;;;1.93;;
8652;SDS011;4364;52.426;9.424;2022-09-09T11:00:21;5.10;;;1.60;;
8652;SDS011;4364;52.426;9.424;2022-09-09T11:03:00;4.53;;;1.50;;
8652;SDS011;4364;52.426;9.424;2022-09-09T11:08:14;4.30;;;1.60;;
8652;SDS011;4364;52.426;9.424;2022-09-09T11:11:02;4.00;;;1.60;;
8652;SDS011;4364;52.426;9.424;2022-09-09T11:13:41;6.00;;;1.87;;
8652;SDS011;4364;52.426;9.424;2022-09-09T11:19:21;4.57;;;1.83;;
8652;SDS011;4364;52.426;9.424;2022-09-09T11:27:49;3.53;;;1.50;;
8652;SDS011;4364;52.426;9.424;2022-09-09T11:38:50;6.00;;;1.60;;
8652;SDS011;4364;52.426;9.424;2022-09-09T11:41:19;3.37;;;1.50;;
8652;SDS011;4364;52.426;9.424;2022-09-09T11:43:48;4.53;;;1.80;;
8652;SDS011;4364;52.426;9.424;2022-09-09T11:46:19;3.93;;;2.20;;
8652;SDS011;4364;52.426;9.424;2022-09-09T11:48:59;4.67;;;1.67;;
8652;SDS011;4364;52.426;9.424;2022-09-09T11:51:30;5.17;;;1.70;;
8652;SDS011;4364;52.426;9.424;2022-09-09T11:53:59;7.67;;;1.90;;
8652;SDS011;4364;52.426;9.424;2022-09-09T11:56:32;5.07;;;1.70;;
8652;SDS011;4364;52.426;9.424;2022-09-09T11:59:03;3.50;;;1.30;;
8652;SDS011;4364;52.426;9.424;2022-09-09T12:01:45;3.77;;;1.30;;
8652;SDS011;4364;52.426;9.424;2022-09-09T12:06:53;3.07;;;1.50;;
8652;SDS011;4364;52.426;9.424;2022-09-09T12:09:57;5.17;;;1.40;;
8652;SDS011;4364;52.426;9.424;2022-09-09T12:12:33;3.77;;;1.50;;
8652;SDS011;4364;52.426;9.424;2022-09-09T12:17:41;5.53;;;1.87;;
8652;SDS011;4364;52.426;9.424;2022-09-09T12:20:20;3.33;;;1.37;;
8652;SDS011;4364;52.426;9.424;2022-09-09T12:31:15;4.30;;;1.50;;
8652;SDS011;4364;52.426;9.424;2022-09-09T12:33:45;4.73;;;2.87;;
8652;SDS011;4364;52.426;9.424;2022-09-09T12:36:15;5.37;;;1.60;;
8652;SDS011;4364;52.426;9.424;2022-09-09T12:38:48;6.30;;;1.80;;
8652;SDS011;4364;52.426;9.424;2022-09-09T12:41:20;3.43;;;1.47;;
8652;SDS011;4364;52.426;9.424;2022-09-09T12:43:49;3.17;;;1.43;;
8652;SDS011;4364;52.426;9.424;2022-09-09T12:46:33;3.47;;;1.30;;
8652;SDS011;4364;52.426;9.424;2022-09-09T12:55:02;5.67;;;1.93;;
8652;SDS011;4364;52.426;9.424;2022-09-09T12:57:35;6.50;;;1.80;;
8652;SDS011;4364;52.426;9.424;2022-09-09T13:02:47;4.20;;;1.47;;
8652;SDS011;4364;52.426;9.424;2022-09-09T13:05:31;4.83;;;1.60;;
8652;SDS011;4364;52.426;9.424;2022-09-09T13:08:02;3.13;;;1.30;;
8652;SDS011;4364;52.426;9.424;2022-09-09T13:10:33;5.40;;;1.70;;
8652;SDS011;4364;52.426;9.424;2022-09-09T13:13:36;3.63;;;1.40;;
8652;SDS011;4364;52.426;9.424;2022-09-09T13:16:06;3.93;;;1.20;;
8652;SDS011;4364;52.426;9.424;2022-09-09T13:18:45;3.57;;;1.40;;
8652;SDS011;4364;52.426;9.424;2022-09-09T13:21:12;3.63;;;1.37;;
8652;SDS011;4364;52.426;9.424;2022-09-09T13:23:40;5.53;;;1.60;;
8652;SDS011;4364;52.426;9.424;2022-09-09T13:26:23;3.50;;;1.60;;
8652;SDS011;4364;52.426;9.424;2022-09-09T13:28:53;3.23;;;1.53;;
8652;SDS011;4364;52.426;9.424;2022-09-09T13:31:21;3.07;;;1.50;;
8652;SDS011;4364;52.426;9.424;2022-09-09T13:34:00;3.93;;;1.20;;
8652;SDS011;4364;52.426;9.424;2022-09-09T13:36:37;4.73;;;1.70;;
8652;SDS011;4364;52.426;9.424;2022-09-09T13:39:03;3.97;;;1.40;;
8652;SDS011;4364;52.426;9.424;2022-09-09T13:41:34;3.47;;;1.30;;
8652;SDS011;4364;52.426;9.424;2022-09-09T13:44:02;3.43;;;1.50;;
8652;SDS011;4364;52.426;9.424;2022-09-09T13:46:37;4.07;;;1.60;;
8652;SDS011;4364;52.426;9.424;2022-09-09T13:51:41;3.73;;;1.37;;
8652;SDS011;4364;52.426;9.424;2022-09-09T13:54:13;4.40;;;1.43;;
8652;SDS011;4364;52.426;9.424;2022-09-09T13:56:41;6.17;;;1.80;;
8652;SDS011;4364;52.426;9.424;2022-09-09T13:59:13;1.73;;;1.30;;
8652;SDS011;4364;52.426;9.424;2022-09-09T14:01:42;4.20;;;1.60;;
8652;SDS011;4364;52.426;9.424;2022-09-09T14:04:09;5.60;;;1.67;;
8652;SDS011;4364;52.426;9.424;2022-09-09T14:06:37;4.90;;;1.47;;
8652;SDS011;4364;52.426;9.424;2022-09-09T14:09:05;2.80;;;1.43;;
8652;SDS011;4364;52.426;9.424;2022-09-09T14:11:33;3.80;;;1.57;;
8652;SDS011;4364;52.426;9.424;2022-09-09T14:14:00;2.70;;;1.30;;
8652;SDS011;4364;52.426;9.424;2022-09-09T14:16:28;2.67;;;1.10;;
8652;SDS011;4364;52.426;9.424;2022-09-09T14:18:55;4.20;;;1.10;;
8652;SDS011;4364;52.426;9.424;2022-09-09T14:21:27;2.50;;;1.30;;
8652;SDS011;4364;52.426;9.424;2022-09-09T14:23:54;3.40;;;1.40;;
8652;SDS011;4364;52.426;9.424;2022-09-09T14:26:21;2.40;;;1.20;;
8652;SDS011;4364;52.426;9.424;2022-09-09T14:28:48;4.10;;;1.40;;
8652;SDS011;4364;52.426;9.424;2022-09-09T14:31:21;3.97;;;1.33;;
8652;SDS011;4364;52.426;9.424;2022-09-09T14:33:48;3.07;;;1.30;;
8652;SDS011;4364;52.426;9.424;2022-09-09T14:36:16;4.13;;;1.43;;
8652;SDS011;4364;52.426;9.424;2022-09-09T14:38:43;3.20;;;1.37;;
8652;SDS011;4364;52.426;9.424;2022-09-09T14:41:13;4.33;;;1.60;;
8652;SDS011;4364;52.426;9.424;2022-09-09T14:43:43;3.13;;;1.40;;
8652;SDS011;4364;52.426;9.424;2022-09-09T14:46:11;4.33;;;1.67;;
8652;SDS011;4364;52.426;9.424;2022-09-09T14:48:39;3.20;;;1.50;;
8652;SDS011;4364;52.426;9.424;2022-09-09T14:51:11;3.63;;;1.43;;
8652;SDS011;4364;52.426;9.424;2022-09-09T14:53:40;3.13;;;1.50;;
8652;SDS011;4364;52.426;9.424;2022-09-09T14:56:11;6.90;;;1.77;;
8652;SDS011;4364;52.426;9.424;2022-09-09T14:58:42;2.00;;;1.30;;
8652;SDS011;4364;52.426;9.424;2022-09-09T15:01:11;3.97;;;1.70;;
8652;SDS011;4364;52.426;9.424;2022-09-09T15:03:40;4.23;;;1.57;;
8652;SDS011;4364;52.426;9.424;2022-09-09T15:06:08;3.20;;;1.50;;
8652;SDS011;4364;52.426;9.424;2022-09-09T15:08:39;4.03;;;1.63;;
8652;SDS011;4364;52.426;9.424;2022-09-09T15:11:08;5.00;;;1.50;;
8652;SDS011;4364;52.426;9.424;2022-09-09T15:13:37;6.37;;;1.90;;
8652;SDS011;4364;52.426;9.424;2022-09-09T15:16:05;4.20;;;1.60;;
8652;SDS011;4364;52.426;9.424;2022-09-09T15:18:33;3.53;;;1.33;;
8652;SDS011;4364;52.426;9.424;2022-09-09T15:21:02;2.70;;;1.20;;
8652;SDS011;4364;52.426;9.424;2022-09-09T15:23:31;3.60;;;1.63;;
8652;SDS011;4364;52.426;9.424;2022-09-09T15:25:59;4.57;;;1.67;;
8652;SDS011;4364;52.426;9.424;2022-09-09T15:28:26;2.73;;;1.37;;
8652;SDS011;4364;52.426;9.424;2022-09-09T15:30:53;4.37;;;1.50;;
8652;SDS011;4364;52.426;9.424;2022-09-09T15:33:21;4.23;;;1.60;;
8652;SDS011;4364;52.426;9.424;2022-09-09T15:35:48;2.87;;;1.50;;
8652;SDS011;4364;52.426;9.424;2022-09-09T15:38:15;3.20;;;1.67;;
8652;SDS011;4364;52.426;9.424;2022-09-09T15:40:43;4.67;;;2.20;;
8652;SDS011;4364;52.426;9.424;2022-09-09T15:43:10;3.03;;;1.73;;
8652;SDS011;4364;52.426;9.424;2022-09-09T15:45:37;4.23;;;2.33;;
8652;SDS011;4364;52.426;9.424;2022-09-09T15:48:04;6.00;;;2.33;;
8652;SDS011;4364;52.426;9.424;2022-09-09T15:50:30;3.63;;;1.90;;
8652;SDS011;4364;52.426;9.424;2022-09-09T15:52:59;4.13;;;1.83;;
8652;SDS011;4364;52.426;9.424;2022-09-09T15:55:26;4.37;;;1.63;;
8652;SDS011;4364;52.426;9.424;2022-09-09T15:57:53;4.03;;;1.43;;
8652;SDS011;4364;52.426;9.424;2022-09-09T16:00:19;3.33;;;1.87;;
8652;SDS011;4364;52.426;9.424;2022-09-09T16:02:47;3.93;;;1.50;;
8652;SDS011;4364;52.426;9.424;2022-09-09T16:05:14;3.17;;;1.40;;
8652;SDS011;4364;52.426;9.424;2022-09-09T16:07:40;4.10;;;1.53;;
8652;SDS011;4364;52.426;9.424;2022-09-09T16:10:08;4.27;;;1.90;;
8652;SDS011;4364;52.426;9.424;2022-09-09T16:12:35;3.47;;;1.50;;
8652;SDS011;4364;52.426;9.424;2022-09-09T16:15:02;4.43;;;1.50;;
8652;SDS011;4364;52.426;9.424;2022-09-09T16:17:29;4.10;;;1.40;;
8652;SDS011;4364;52.426;9.424;2022-09-09T16:19:56;4.83;;;1.83;;
8652;SDS011;4364;52.426;9.424;2022-09-09T16:22:24;4.93;;;1.77;;
8652;SDS011;4364;52.426;9.424;2022-09-09T16:24:50;3.23;;;1.60;;
8652;SDS011;4364;52.426;9.424;2022-09-09T16:27:17;5.53;;;1.50;;
8652;SDS011;4364;52.426;9.424;2022-09-09T16:29:44;4.20;;;1.40;;
8652;SDS011;4364;52.426;9.424;2022-09-09T16:32:11;2.67;;;1.67;;
8652;SDS011;4364;52.426;9.424;2022-09-09T16:34:38;3.90;;;1.60;;
8652;SDS011;4364;52.426;9.424;2022-09-09T16:37:04;3.00;;;1.80;;
8652;SDS011;4364;52.426;9.424;2022-09-09T16:39:31;5.50;;;1.40;;
8652;SDS011;4364;52.426;9.424;2022-09-09T16:41:57;2.87;;;1.40;;
8652;SDS011;4364;52.426;9.424;2022-09-09T16:44:25;4.03;;;1.80;;
8652;SDS011;4364;52.426;9.424;2022-09-09T16:46:52;2.57;;;1.43;;
8652;SDS011;4364;52.426;9.424;2022-09-09T16:49:25;2.80;;;1.40;;
8652;SDS011;4364;52.426;9.424;2022-09-09T16:51:53;5.43;;;1.60;;
8652;SDS011;4364;52.426;9.424;2022-09-09T16:54:20;5.17;;;2.00;;
8652;SDS011;4364;52.426;9.424;2022-09-09T16:56:48;5.43;;;1.90;;
8652;SDS011;4364;52.426;9.424;2022-09-09T16:59:15;6.73;;;2.20;;
8652;SDS011;4364;52.426;9.424;2022-09-09T17:01:43;5.40;;;2.03;;
8652;SDS011;4364;52.426;9.424;2022-09-09T17:04:12;5.47;;;2.07;;
8652;SDS011;4364;52.426;9.424;2022-09-09T17:06:50;5.40;;;2.23;;
8652;SDS011;4364;52.426;9.424;2022-09-09T17:09:18;3.73;;;1.80;;
8652;SDS011;4364;52.426;9.424;2022-09-09T17:11:46;4.97;;;1.97;;
8652;SDS011;4364;52.426;9.424;2022-09-09T17:14:15;3.83;;;1.70;;
8652;SDS011;4364;52.426;9.424;2022-09-09T17:16:43;4.30;;;1.80;;
8652;SDS011;4364;52.426;9.424;2022-09-09T17:19:11;5.23;;;1.83;;
8652;SDS011;4364;52.426;9.424;2022-09-09T17:21:37;4.10;;;1.70;;
8652;SDS011;4364;52.426;9.424;2022-09-09T17:24:25;4.93;;;1.80;;
8652;SDS011;4364;52.426;9.424;2022-09-09T17:26:55;4.80;;;1.60;;
8652;SDS011;4364;52.426;9.424;2022-09-09T17:29:23;5.60;;;2.03;;
8652;SDS011;4364;52.426;9.424;2022-09-09T17:31:51;3.67;;;1.63;;
8652;SDS011;4364;52.426;9.424;2022-09-09T17:34:18;4.97;;;1.70;;
8652;SDS011;4364;52.426;9.424;2022-09-09T17:36:45;4.40;;;1.80;;
8652;SDS011;4364;52.426;9.424;2022-09-09T17:39:11;5.60;;;2.20;;
8652;SDS011;4364;52.426;9.424;2022-09-09T17:41:38;9.13;;;6.00;;
8652;SDS011;4364;52.426;9.424;2022-09-09T17:44:06;9.67;;;5.50;;
8652;SDS011;4364;52.426;9.424;2022-09-09T17:46:39;9.37;;;6.47;;
8652;SDS011;4364;52.426;9.424;2022-09-09T17:49:08;7.83;;;6.50;;
8652;SDS011;4364;52.426;9.424;2022-09-09T17:51:36;5.70;;;4.90;;
8652;SDS011;4364;52.426;9.424;2022-09-09T17:54:06;6.53;;;3.80;;
8652;SDS011;4364;52.426;9.424;2022-09-09T17:56:35;4.57;;;3.10;;
8652;SDS011;4364;52.426;9.424;2022-09-09T17:59:05;6.23;;;2.50;;
8652;SDS011;4364;52.426;9.424;2022-09-09T18:01:36;4.20;;;2.40;;
8652;SDS011;4364;52.426;9.424;2022-09-09T18:04:05;6.30;;;3.50;;
8652;SDS011;4364;52.426;9.424;2022-09-09T18:06:34;6.73;;;3.17;;